sensor_id;sensor_type;location;lat;lon;timestamp;P1;durP1;ratioP1;P2;durP2;ratioP2
81952;SDS011;71454;55.476;14.282;2024-01-11T00:01:21;8.55;;;3.17;;
81952;SDS011;71454;55.476;14.282;2024-01-11T00:03:46;11.07;;;3.35;;
81952;SDS011;71454;55.476;14.282;2024-01-11T00:06:11;10.00;;;3.30;;
81952;SDS011;71454;55.476;14.282;2024-01-11T00:08:37;9.70;;;3.38;;
81952;SDS011;71454;55.476;14.282;2024-01-11T00:11:02;7.88;;;2.90;;
81952;SDS011;71454;55.476;14.282;2024-01-11T00:13:28;8.40;;;2.70;;
81952;SDS011;71454;55.476;14.282;2024-01-11T00:15:54;7.03;;;2.42;;
81952;SDS011;71454;55.476;14.282;2024-01-11T00:18:19;8.18;;;3.13;;
81952;SDS011;71454;55.476;14.282;2024-01-11T00:20:45;11.35;;;3.20;;
81952;SDS011;71454;55.476;14.282;2024-01-11T00:23:10;9.52;;;3.15;;
81952;SDS011;71454;55.476;14.282;2024-01-11T00:25:36;10.98;;;3.80;;
81952;SDS011;71454;55.476;14.282;2024-01-11T00:28:01;8.63;;;2.70;;
81952;SDS011;71454;55.476;14.282;2024-01-11T00:30:27;9.48;;;3.47;;
81952;SDS011;71454;55.476;14.282;2024-01-11T00:32:52;8.77;;;3.22;;
81952;SDS011;71454;55.476;14.282;2024-01-11T00:35:17;10.20;;;3.55;;
81952;SDS011;71454;55.476;14.282;2024-01-11T00:37:43;7.70;;;2.83;;
81952;SDS011;71454;55.476;14.282;2024-01-11T00:40:08;9.45;;;3.25;;
81952;SDS011;71454;55.476;14.282;2024-01-11T00:42:34;9.18;;;2.72;;
81952;SDS011;71454;55.476;14.282;2024-01-11T00:45:00;8.93;;;3.00;;
81952;SDS011;71454;55.476;14.282;2024-01-11T00:47:25;9.77;;;3.67;;
81952;SDS011;71454;55.476;14.282;2024-01-11T00:49:51;12.35;;;4.20;;
81952;SDS011;71454;55.476;14.282;2024-01-11T00:52:17;11.40;;;3.90;;
81952;SDS011;71454;55.476;14.282;2024-01-11T00:54:42;10.30;;;4.03;;
81952;SDS011;71454;55.476;14.282;2024-01-11T00:57:08;10.77;;;3.28;;
81952;SDS011;71454;55.476;14.282;2024-01-11T00:59:33;9.23;;;3.60;;
81952;SDS011;71454;55.476;14.282;2024-01-11T01:01:58;10.45;;;3.67;;
81952;SDS011;71454;55.476;14.282;2024-01-11T01:04:24;13.00;;;4.30;;
81952;SDS011;71454;55.476;14.282;2024-01-11T01:06:49;10.55;;;3.63;;
81952;SDS011;71454;55.476;14.282;2024-01-11T01:09:15;10.85;;;3.33;;
81952;SDS011;71454;55.476;14.282;2024-01-11T01:11:40;12.00;;;3.97;;
81952;SDS011;71454;55.476;14.282;2024-01-11T01:14:06;23.70;;;4.80;;
81952;SDS011;71454;55.476;14.282;2024-01-11T01:16:31;11.40;;;3.92;;
81952;SDS011;71454;55.476;14.282;2024-01-11T01:18:56;11.43;;;4.45;;
81952;SDS011;71454;55.476;14.282;2024-01-11T01:21:22;12.70;;;3.90;;
81952;SDS011;71454;55.476;14.282;2024-01-11T01:23:48;11.98;;;3.90;;
81952;SDS011;71454;55.476;14.282;2024-01-11T01:26:13;11.20;;;4.65;;
81952;SDS011;71454;55.476;14.282;2024-01-11T01:28:39;13.27;;;5.28;;
81952;SDS011;71454;55.476;14.282;2024-01-11T01:31:05;10.90;;;4.72;;
81952;SDS011;71454;55.476;14.282;2024-01-11T01:33:30;14.18;;;5.22;;
81952;SDS011;71454;55.476;14.282;2024-01-11T01:35:56;12.65;;;4.82;;
81952;SDS011;71454;55.476;14.282;2024-01-11T01:38:21;14.73;;;5.40;;
81952;SDS011;71454;55.476;14.282;2024-01-11T01:40:47;13.93;;;4.90;;
81952;SDS011;71454;55.476;14.282;2024-01-11T01:43:12;13.30;;;5.57;;
81952;SDS011;71454;55.476;14.282;2024-01-11T01:45:38;12.75;;;5.63;;
81952;SDS011;71454;55.476;14.282;2024-01-11T01:48:04;16.83;;;5.95;;
81952;SDS011;71454;55.476;14.282;2024-01-11T01:50:29;15.15;;;4.72;;
81952;SDS011;71454;55.476;14.282;2024-01-11T01:52:55;17.00;;;5.97;;
81952;SDS011;71454;55.476;14.282;2024-01-11T01:55:21;15.68;;;5.97;;
81952;SDS011;71454;55.476;14.282;2024-01-11T01:57:47;15.15;;;5.47;;
81952;SDS011;71454;55.476;14.282;2024-01-11T02:00:14;16.95;;;5.30;;
81952;SDS011;71454;55.476;14.282;2024-01-11T02:02:40;16.05;;;5.80;;
81952;SDS011;71454;55.476;14.282;2024-01-11T02:05:11;13.90;;;5.63;;
81952;SDS011;71454;55.476;14.282;2024-01-11T02:07:38;14.70;;;5.97;;
81952;SDS011;71454;55.476;14.282;2024-01-11T02:10:05;17.67;;;6.22;;
81952;SDS011;71454;55.476;14.282;2024-01-11T02:12:31;13.93;;;5.40;;
81952;SDS011;71454;55.476;14.282;2024-01-11T02:14:56;16.40;;;4.75;;
81952;SDS011;71454;55.476;14.282;2024-01-11T02:17:21;14.48;;;5.05;;
81952;SDS011;71454;55.476;14.282;2024-01-11T02:19:47;16.00;;;5.13;;
81952;SDS011;71454;55.476;14.282;2024-01-11T02:22:18;15.45;;;6.15;;
81952;SDS011;71454;55.476;14.282;2024-01-11T02:24:47;19.13;;;6.65;;
81952;SDS011;71454;55.476;14.282;2024-01-11T02:27:12;15.07;;;6.03;;
81952;SDS011;71454;55.476;14.282;2024-01-11T02:29:38;16.60;;;6.00;;
81952;SDS011;71454;55.476;14.282;2024-01-11T02:32:03;16.75;;;5.40;;
81952;SDS011;71454;55.476;14.282;2024-01-11T02:34:31;15.80;;;5.40;;
81952;SDS011;71454;55.476;14.282;2024-01-11T02:36:57;15.25;;;5.28;;
81952;SDS011;71454;55.476;14.282;2024-01-11T02:39:23;16.70;;;6.40;;
81952;SDS011;71454;55.476;14.282;2024-01-11T02:41:50;15.82;;;5.10;;
81952;SDS011;71454;55.476;14.282;2024-01-11T02:44:17;21.50;;;6.25;;
81952;SDS011;71454;55.476;14.282;2024-01-11T02:46:42;20.23;;;5.90;;
81952;SDS011;71454;55.476;14.282;2024-01-11T02:49:08;17.70;;;6.28;;
81952;SDS011;71454;55.476;14.282;2024-01-11T02:51:33;17.75;;;6.20;;
81952;SDS011;71454;55.476;14.282;2024-01-11T02:53:59;18.75;;;6.40;;
81952;SDS011;71454;55.476;14.282;2024-01-11T02:56:24;16.73;;;6.22;;
81952;SDS011;71454;55.476;14.282;2024-01-11T02:58:50;18.17;;;6.40;;
81952;SDS011;71454;55.476;14.282;2024-01-11T03:01:15;16.60;;;6.00;;
81952;SDS011;71454;55.476;14.282;2024-01-11T03:03:41;16.25;;;5.90;;
81952;SDS011;71454;55.476;14.282;2024-01-11T03:06:06;16.50;;;6.43;;
81952;SDS011;71454;55.476;14.282;2024-01-11T03:08:32;15.05;;;5.78;;
81952;SDS011;71454;55.476;14.282;2024-01-11T03:10:57;17.92;;;5.75;;
81952;SDS011;71454;55.476;14.282;2024-01-11T03:13:23;15.80;;;5.75;;
81952;SDS011;71454;55.476;14.282;2024-01-11T03:15:48;14.88;;;5.63;;
81952;SDS011;71454;55.476;14.282;2024-01-11T03:18:14;14.90;;;5.85;;
81952;SDS011;71454;55.476;14.282;2024-01-11T03:20:39;16.17;;;5.60;;
81952;SDS011;71454;55.476;14.282;2024-01-11T03:23:05;15.80;;;5.70;;
81952;SDS011;71454;55.476;14.282;2024-01-11T03:25:30;16.42;;;5.47;;
81952;SDS011;71454;55.476;14.282;2024-01-11T03:27:57;16.30;;;5.25;;
81952;SDS011;71454;55.476;14.282;2024-01-11T03:30:23;15.75;;;5.75;;
81952;SDS011;71454;55.476;14.282;2024-01-11T03:32:49;14.65;;;5.25;;
81952;SDS011;71454;55.476;14.282;2024-01-11T03:35:15;16.05;;;5.80;;
81952;SDS011;71454;55.476;14.282;2024-01-11T03:37:40;13.85;;;5.40;;
81952;SDS011;71454;55.476;14.282;2024-01-11T03:40:06;13.00;;;4.65;;
81952;SDS011;71454;55.476;14.282;2024-01-11T03:42:32;18.35;;;5.80;;
81952;SDS011;71454;55.476;14.282;2024-01-11T03:44:57;14.23;;;5.47;;
81952;SDS011;71454;55.476;14.282;2024-01-11T03:47:23;14.73;;;4.88;;
81952;SDS011;71454;55.476;14.282;2024-01-11T03:49:48;13.32;;;4.72;;
81952;SDS011;71454;55.476;14.282;2024-01-11T03:52:14;13.32;;;5.03;;
81952;SDS011;71454;55.476;14.282;2024-01-11T03:54:39;13.88;;;5.28;;
81952;SDS011;71454;55.476;14.282;2024-01-11T03:57:05;13.27;;;4.65;;
81952;SDS011;71454;55.476;14.282;2024-01-11T03:59:31;11.77;;;5.38;;
81952;SDS011;71454;55.476;14.282;2024-01-11T04:01:57;14.57;;;5.20;;
81952;SDS011;71454;55.476;14.282;2024-01-11T04:04:22;12.45;;;4.45;;
81952;SDS011;71454;55.476;14.282;2024-01-11T04:06:48;14.18;;;4.55;;
81952;SDS011;71454;55.476;14.282;2024-01-11T04:09:14;14.40;;;5.18;;
81952;SDS011;71454;55.476;14.282;2024-01-11T04:11:40;14.63;;;5.35;;
81952;SDS011;71454;55.476;14.282;2024-01-11T04:14:06;14.05;;;4.80;;
81952;SDS011;71454;55.476;14.282;2024-01-11T04:16:31;12.48;;;5.18;;
81952;SDS011;71454;55.476;14.282;2024-01-11T04:18:57;10.73;;;4.13;;
81952;SDS011;71454;55.476;14.282;2024-01-11T04:21:26;11.40;;;4.43;;
81952;SDS011;71454;55.476;14.282;2024-01-11T04:23:55;10.18;;;4.43;;
81952;SDS011;71454;55.476;14.282;2024-01-11T04:26:21;12.80;;;4.28;;
81952;SDS011;71454;55.476;14.282;2024-01-11T04:28:47;13.48;;;4.80;;
81952;SDS011;71454;55.476;14.282;2024-01-11T04:31:13;11.43;;;3.58;;
81952;SDS011;71454;55.476;14.282;2024-01-11T04:33:45;10.25;;;4.50;;
81952;SDS011;71454;55.476;14.282;2024-01-11T04:36:11;11.18;;;4.03;;
81952;SDS011;71454;55.476;14.282;2024-01-11T04:38:37;12.15;;;4.30;;
81952;SDS011;71454;55.476;14.282;2024-01-11T04:41:10;10.80;;;4.10;;
81952;SDS011;71454;55.476;14.282;2024-01-11T04:43:40;9.57;;;3.72;;
81952;SDS011;71454;55.476;14.282;2024-01-11T04:48:49;11.98;;;4.95;;
81952;SDS011;71454;55.476;14.282;2024-01-11T04:51:15;12.65;;;4.28;;
81952;SDS011;71454;55.476;14.282;2024-01-11T04:53:42;10.73;;;4.25;;
81952;SDS011;71454;55.476;14.282;2024-01-11T04:56:09;13.40;;;4.78;;
81952;SDS011;71454;55.476;14.282;2024-01-11T04:58:36;11.02;;;3.80;;
81952;SDS011;71454;55.476;14.282;2024-01-11T05:01:03;10.93;;;3.95;;
81952;SDS011;71454;55.476;14.282;2024-01-11T05:03:29;11.88;;;4.10;;
81952;SDS011;71454;55.476;14.282;2024-01-11T05:05:56;10.32;;;3.95;;
81952;SDS011;71454;55.476;14.282;2024-01-11T05:08:21;9.55;;;3.28;;
81952;SDS011;71454;55.476;14.282;2024-01-11T05:10:47;10.55;;;4.00;;
81952;SDS011;71454;55.476;14.282;2024-01-11T05:13:12;10.50;;;3.83;;
81952;SDS011;71454;55.476;14.282;2024-01-11T05:15:38;9.45;;;3.55;;
81952;SDS011;71454;55.476;14.282;2024-01-11T05:18:03;11.48;;;4.20;;
81952;SDS011;71454;55.476;14.282;2024-01-11T05:20:29;9.88;;;3.90;;
81952;SDS011;71454;55.476;14.282;2024-01-11T05:22:54;9.32;;;3.97;;
81952;SDS011;71454;55.476;14.282;2024-01-11T05:25:20;9.07;;;3.28;;
81952;SDS011;71454;55.476;14.282;2024-01-11T05:27:45;11.32;;;4.50;;
81952;SDS011;71454;55.476;14.282;2024-01-11T05:30:11;10.55;;;3.58;;
81952;SDS011;71454;55.476;14.282;2024-01-11T05:32:37;11.07;;;4.25;;
81952;SDS011;71454;55.476;14.282;2024-01-11T05:35:03;10.32;;;4.43;;
81952;SDS011;71454;55.476;14.282;2024-01-11T05:37:28;11.80;;;3.95;;
81952;SDS011;71454;55.476;14.282;2024-01-11T05:39:54;11.25;;;4.20;;
81952;SDS011;71454;55.476;14.282;2024-01-11T05:42:22;9.70;;;3.75;;
81952;SDS011;71454;55.476;14.282;2024-01-11T05:44:48;10.10;;;4.07;;
81952;SDS011;71454;55.476;14.282;2024-01-11T05:47:13;11.23;;;3.72;;
81952;SDS011;71454;55.476;14.282;2024-01-11T05:49:39;9.23;;;3.38;;
81952;SDS011;71454;55.476;14.282;2024-01-11T05:52:05;9.25;;;3.95;;
81952;SDS011;71454;55.476;14.282;2024-01-11T05:54:31;11.38;;;3.50;;
81952;SDS011;71454;55.476;14.282;2024-01-11T05:56:56;10.40;;;3.65;;
81952;SDS011;71454;55.476;14.282;2024-01-11T05:59:23;10.07;;;3.95;;
81952;SDS011;71454;55.476;14.282;2024-01-11T06:01:48;9.52;;;3.40;;
81952;SDS011;71454;55.476;14.282;2024-01-11T06:04:14;9.20;;;4.22;;
81952;SDS011;71454;55.476;14.282;2024-01-11T06:06:40;8.93;;;3.25;;
81952;SDS011;71454;55.476;14.282;2024-01-11T06:09:05;7.68;;;3.17;;
81952;SDS011;71454;55.476;14.282;2024-01-11T06:11:31;10.32;;;4.00;;
81952;SDS011;71454;55.476;14.282;2024-01-11T06:13:57;9.80;;;3.55;;
81952;SDS011;71454;55.476;14.282;2024-01-11T06:16:22;9.27;;;3.70;;
81952;SDS011;71454;55.476;14.282;2024-01-11T06:18:48;9.75;;;3.58;;
81952;SDS011;71454;55.476;14.282;2024-01-11T06:21:13;9.75;;;3.85;;
81952;SDS011;71454;55.476;14.282;2024-01-11T06:23:40;9.00;;;3.38;;
81952;SDS011;71454;55.476;14.282;2024-01-11T06:26:05;10.25;;;3.83;;
81952;SDS011;71454;55.476;14.282;2024-01-11T06:28:32;8.98;;;3.85;;
81952;SDS011;71454;55.476;14.282;2024-01-11T06:30:58;7.93;;;3.40;;
81952;SDS011;71454;55.476;14.282;2024-01-11T06:33:23;8.90;;;3.42;;
81952;SDS011;71454;55.476;14.282;2024-01-11T06:35:48;8.77;;;3.10;;
81952;SDS011;71454;55.476;14.282;2024-01-11T06:38:14;9.05;;;3.67;;
81952;SDS011;71454;55.476;14.282;2024-01-11T06:40:40;7.70;;;2.92;;
81952;SDS011;71454;55.476;14.282;2024-01-11T06:43:05;7.10;;;2.50;;
81952;SDS011;71454;55.476;14.282;2024-01-11T06:45:31;8.48;;;3.53;;
81952;SDS011;71454;55.476;14.282;2024-01-11T06:47:56;8.90;;;3.65;;
81952;SDS011;71454;55.476;14.282;2024-01-11T06:50:22;9.77;;;3.65;;
81952;SDS011;71454;55.476;14.282;2024-01-11T06:52:47;9.25;;;2.97;;
81952;SDS011;71454;55.476;14.282;2024-01-11T06:55:13;7.95;;;3.03;;
81952;SDS011;71454;55.476;14.282;2024-01-11T06:57:38;10.10;;;3.15;;
81952;SDS011;71454;55.476;14.282;2024-01-11T07:00:04;8.60;;;3.38;;
81952;SDS011;71454;55.476;14.282;2024-01-11T07:02:30;7.97;;;3.65;;
81952;SDS011;71454;55.476;14.282;2024-01-11T07:04:56;8.15;;;3.00;;
81952;SDS011;71454;55.476;14.282;2024-01-11T07:07:21;7.53;;;2.95;;
81952;SDS011;71454;55.476;14.282;2024-01-11T07:09:47;10.30;;;2.92;;
81952;SDS011;71454;55.476;14.282;2024-01-11T07:12:12;7.38;;;2.83;;
81952;SDS011;71454;55.476;14.282;2024-01-11T07:14:38;7.60;;;3.10;;
81952;SDS011;71454;55.476;14.282;2024-01-11T07:17:03;7.53;;;2.97;;
81952;SDS011;71454;55.476;14.282;2024-01-11T07:19:29;9.45;;;3.28;;
81952;SDS011;71454;55.476;14.282;2024-01-11T07:21:54;7.28;;;3.13;;
81952;SDS011;71454;55.476;14.282;2024-01-11T07:24:20;8.15;;;3.15;;
81952;SDS011;71454;55.476;14.282;2024-01-11T07:26:46;5.60;;;2.20;;
81952;SDS011;71454;55.476;14.282;2024-01-11T07:29:12;9.13;;;3.25;;
81952;SDS011;71454;55.476;14.282;2024-01-11T07:31:37;7.38;;;2.97;;
81952;SDS011;71454;55.476;14.282;2024-01-11T07:34:03;7.93;;;2.97;;
81952;SDS011;71454;55.476;14.282;2024-01-11T07:36:29;7.32;;;2.92;;
81952;SDS011;71454;55.476;14.282;2024-01-11T07:38:55;7.18;;;2.80;;
81952;SDS011;71454;55.476;14.282;2024-01-11T07:41:21;8.25;;;3.75;;
81952;SDS011;71454;55.476;14.282;2024-01-11T07:43:47;9.88;;;3.55;;
81952;SDS011;71454;55.476;14.282;2024-01-11T07:46:13;8.75;;;3.28;;
81952;SDS011;71454;55.476;14.282;2024-01-11T07:48:38;7.95;;;2.45;;
81952;SDS011;71454;55.476;14.282;2024-01-11T07:51:04;8.68;;;3.45;;
81952;SDS011;71454;55.476;14.282;2024-01-11T07:53:29;9.48;;;2.92;;
81952;SDS011;71454;55.476;14.282;2024-01-11T07:55:57;11.43;;;3.00;;
81952;SDS011;71454;55.476;14.282;2024-01-11T07:58:22;10.10;;;3.45;;
81952;SDS011;71454;55.476;14.282;2024-01-11T08:00:48;9.18;;;3.03;;
81952;SDS011;71454;55.476;14.282;2024-01-11T08:03:14;9.52;;;2.72;;
81952;SDS011;71454;55.476;14.282;2024-01-11T08:05:39;7.32;;;2.40;;
81952;SDS011;71454;55.476;14.282;2024-01-11T08:08:05;8.95;;;2.80;;
81952;SDS011;71454;55.476;14.282;2024-01-11T08:10:30;8.20;;;3.15;;
81952;SDS011;71454;55.476;14.282;2024-01-11T08:12:56;7.50;;;2.50;;
81952;SDS011;71454;55.476;14.282;2024-01-11T08:15:22;7.03;;;2.50;;
81952;SDS011;71454;55.476;14.282;2024-01-11T08:17:47;6.93;;;2.70;;
81952;SDS011;71454;55.476;14.282;2024-01-11T08:20:13;9.15;;;3.13;;
81952;SDS011;71454;55.476;14.282;2024-01-11T08:22:39;7.93;;;2.85;;
81952;SDS011;71454;55.476;14.282;2024-01-11T08:25:05;7.35;;;2.40;;
81952;SDS011;71454;55.476;14.282;2024-01-11T08:27:31;9.38;;;2.70;;
81952;SDS011;71454;55.476;14.282;2024-01-11T08:29:58;9.68;;;2.80;;
81952;SDS011;71454;55.476;14.282;2024-01-11T08:32:25;9.00;;;2.58;;
81952;SDS011;71454;55.476;14.282;2024-01-11T08:34:50;6.65;;;2.53;;
81952;SDS011;71454;55.476;14.282;2024-01-11T08:37:16;7.00;;;2.78;;
81952;SDS011;71454;55.476;14.282;2024-01-11T08:39:41;6.70;;;2.53;;
81952;SDS011;71454;55.476;14.282;2024-01-11T08:42:07;9.27;;;3.33;;
81952;SDS011;71454;55.476;14.282;2024-01-11T08:44:32;8.07;;;3.05;;
81952;SDS011;71454;55.476;14.282;2024-01-11T08:46:58;9.63;;;3.10;;
81952;SDS011;71454;55.476;14.282;2024-01-11T08:49:24;6.93;;;2.40;;
81952;SDS011;71454;55.476;14.282;2024-01-11T08:51:50;8.00;;;2.60;;
81952;SDS011;71454;55.476;14.282;2024-01-11T08:54:16;7.72;;;2.65;;
81952;SDS011;71454;55.476;14.282;2024-01-11T08:56:41;7.25;;;2.40;;
81952;SDS011;71454;55.476;14.282;2024-01-11T08:59:10;7.55;;;2.85;;
81952;SDS011;71454;55.476;14.282;2024-01-11T09:01:36;6.65;;;2.55;;
81952;SDS011;71454;55.476;14.282;2024-01-11T09:04:02;7.18;;;2.50;;
81952;SDS011;71454;55.476;14.282;2024-01-11T09:06:28;8.40;;;2.90;;
81952;SDS011;71454;55.476;14.282;2024-01-11T09:08:54;6.57;;;2.35;;
81952;SDS011;71454;55.476;14.282;2024-01-11T09:11:19;6.25;;;2.38;;
81952;SDS011;71454;55.476;14.282;2024-01-11T09:13:45;7.18;;;2.30;;
81952;SDS011;71454;55.476;14.282;2024-01-11T09:16:13;6.75;;;2.88;;
81952;SDS011;71454;55.476;14.282;2024-01-11T09:18:40;6.15;;;2.42;;
81952;SDS011;71454;55.476;14.282;2024-01-11T09:21:06;6.97;;;2.72;;
81952;SDS011;71454;55.476;14.282;2024-01-11T09:23:31;8.00;;;2.75;;
81952;SDS011;71454;55.476;14.282;2024-01-11T09:25:57;8.32;;;2.55;;
81952;SDS011;71454;55.476;14.282;2024-01-11T09:28:22;7.13;;;2.50;;
81952;SDS011;71454;55.476;14.282;2024-01-11T09:30:48;6.20;;;2.03;;
81952;SDS011;71454;55.476;14.282;2024-01-11T09:33:14;6.90;;;2.60;;
81952;SDS011;71454;55.476;14.282;2024-01-11T09:35:40;6.53;;;2.30;;
81952;SDS011;71454;55.476;14.282;2024-01-11T09:38:05;7.60;;;2.65;;
81952;SDS011;71454;55.476;14.282;2024-01-11T09:40:31;6.88;;;2.20;;
81952;SDS011;71454;55.476;14.282;2024-01-11T09:42:57;7.35;;;2.47;;
81952;SDS011;71454;55.476;14.282;2024-01-11T09:45:22;6.70;;;2.50;;
81952;SDS011;71454;55.476;14.282;2024-01-11T09:47:48;8.85;;;2.17;;
81952;SDS011;71454;55.476;14.282;2024-01-11T09:50:15;7.10;;;2.35;;
81952;SDS011;71454;55.476;14.282;2024-01-11T09:52:47;5.78;;;2.10;;
81952;SDS011;71454;55.476;14.282;2024-01-11T09:55:14;5.82;;;1.63;;
81952;SDS011;71454;55.476;14.282;2024-01-11T09:57:41;7.00;;;2.65;;
81952;SDS011;71454;55.476;14.282;2024-01-11T10:00:09;6.15;;;2.35;;
81952;SDS011;71454;55.476;14.282;2024-01-11T10:02:47;7.50;;;2.65;;
81952;SDS011;71454;55.476;14.282;2024-01-11T10:05:13;6.63;;;1.92;;
81952;SDS011;71454;55.476;14.282;2024-01-11T10:07:41;7.05;;;2.20;;
81952;SDS011;71454;55.476;14.282;2024-01-11T10:10:07;6.28;;;2.40;;
81952;SDS011;71454;55.476;14.282;2024-01-11T10:12:36;6.32;;;1.98;;
81952;SDS011;71454;55.476;14.282;2024-01-11T10:15:06;6.55;;;2.17;;
81952;SDS011;71454;55.476;14.282;2024-01-11T10:17:35;6.53;;;2.35;;
81952;SDS011;71454;55.476;14.282;2024-01-11T10:20:01;6.35;;;2.25;;
81952;SDS011;71454;55.476;14.282;2024-01-11T10:22:28;8.07;;;2.10;;
81952;SDS011;71454;55.476;14.282;2024-01-11T10:25:16;6.63;;;2.05;;
81952;SDS011;71454;55.476;14.282;2024-01-11T10:27:43;6.30;;;2.40;;
81952;SDS011;71454;55.476;14.282;2024-01-11T10:30:10;6.22;;;2.15;;
81952;SDS011;71454;55.476;14.282;2024-01-11T10:32:44;8.77;;;2.15;;
81952;SDS011;71454;55.476;14.282;2024-01-11T10:35:10;5.70;;;2.20;;
81952;SDS011;71454;55.476;14.282;2024-01-11T10:37:36;6.00;;;1.83;;
81952;SDS011;71454;55.476;14.282;2024-01-11T10:40:04;6.10;;;1.95;;
81952;SDS011;71454;55.476;14.282;2024-01-11T10:42:49;6.93;;;2.17;;
81952;SDS011;71454;55.476;14.282;2024-01-11T10:45:17;6.35;;;2.03;;
81952;SDS011;71454;55.476;14.282;2024-01-11T10:50:16;6.45;;;2.10;;
81952;SDS011;71454;55.476;14.282;2024-01-11T10:52:50;6.88;;;2.17;;
81952;SDS011;71454;55.476;14.282;2024-01-11T10:55:27;5.70;;;2.25;;
81952;SDS011;71454;55.476;14.282;2024-01-11T10:57:55;5.10;;;1.65;;
81952;SDS011;71454;55.476;14.282;2024-01-11T11:00:21;6.20;;;2.22;;
81952;SDS011;71454;55.476;14.282;2024-01-11T11:02:47;6.95;;;1.90;;
81952;SDS011;71454;55.476;14.282;2024-01-11T11:05:13;6.18;;;2.03;;
81952;SDS011;71454;55.476;14.282;2024-01-11T11:07:38;7.65;;;2.50;;
81952;SDS011;71454;55.476;14.282;2024-01-11T11:10:04;6.65;;;2.25;;
81952;SDS011;71454;55.476;14.282;2024-01-11T11:12:32;6.53;;;2.30;;
81952;SDS011;71454;55.476;14.282;2024-01-11T11:14:59;6.90;;;2.38;;
81952;SDS011;71454;55.476;14.282;2024-01-11T11:17:25;6.75;;;2.22;;
81952;SDS011;71454;55.476;14.282;2024-01-11T11:19:52;6.20;;;2.10;;
81952;SDS011;71454;55.476;14.282;2024-01-11T11:22:18;5.97;;;2.13;;
81952;SDS011;71454;55.476;14.282;2024-01-11T11:24:44;6.40;;;2.30;;
81952;SDS011;71454;55.476;14.282;2024-01-11T11:27:13;7.30;;;2.53;;
81952;SDS011;71454;55.476;14.282;2024-01-11T11:29:39;7.20;;;2.40;;
81952;SDS011;71454;55.476;14.282;2024-01-11T11:32:05;6.35;;;2.30;;
81952;SDS011;71454;55.476;14.282;2024-01-11T11:34:43;8.50;;;2.88;;
81952;SDS011;71454;55.476;14.282;2024-01-11T11:37:09;8.48;;;2.85;;
81952;SDS011;71454;55.476;14.282;2024-01-11T11:39:35;8.70;;;2.08;;
81952;SDS011;71454;55.476;14.282;2024-01-11T11:42:01;6.72;;;2.53;;
81952;SDS011;71454;55.476;14.282;2024-01-11T11:44:27;7.13;;;3.15;;
81952;SDS011;71454;55.476;14.282;2024-01-11T11:46:54;7.55;;;2.50;;
81952;SDS011;71454;55.476;14.282;2024-01-11T11:49:19;6.03;;;2.17;;
81952;SDS011;71454;55.476;14.282;2024-01-11T11:51:44;7.03;;;3.00;;
81952;SDS011;71454;55.476;14.282;2024-01-11T11:54:10;7.95;;;2.30;;
81952;SDS011;71454;55.476;14.282;2024-01-11T11:56:35;9.35;;;2.22;;
81952;SDS011;71454;55.476;14.282;2024-01-11T11:59:02;6.95;;;3.25;;
81952;SDS011;71454;55.476;14.282;2024-01-11T12:01:28;7.93;;;2.72;;
81952;SDS011;71454;55.476;14.282;2024-01-11T12:03:53;5.70;;;1.77;;
81952;SDS011;71454;55.476;14.282;2024-01-11T12:06:20;6.38;;;2.47;;
81952;SDS011;71454;55.476;14.282;2024-01-11T12:08:48;7.13;;;2.20;;
81952;SDS011;71454;55.476;14.282;2024-01-11T12:11:14;5.13;;;2.05;;
81952;SDS011;71454;55.476;14.282;2024-01-11T12:13:42;5.35;;;1.70;;
81952;SDS011;71454;55.476;14.282;2024-01-11T12:16:09;4.22;;;1.17;;
81952;SDS011;71454;55.476;14.282;2024-01-11T12:18:35;4.35;;;1.23;;
81952;SDS011;71454;55.476;14.282;2024-01-11T12:21:01;5.35;;;1.50;;
81952;SDS011;71454;55.476;14.282;2024-01-11T12:23:27;6.75;;;1.58;;
81952;SDS011;71454;55.476;14.282;2024-01-11T12:25:55;5.40;;;1.30;;
81952;SDS011;71454;55.476;14.282;2024-01-11T12:28:22;5.15;;;1.50;;
81952;SDS011;71454;55.476;14.282;2024-01-11T12:30:47;4.07;;;1.17;;
81952;SDS011;71454;55.476;14.282;2024-01-11T12:33:13;6.18;;;1.40;;
81952;SDS011;71454;55.476;14.282;2024-01-11T12:35:38;4.03;;;0.90;;
81952;SDS011;71454;55.476;14.282;2024-01-11T12:38:05;3.88;;;1.17;;
81952;SDS011;71454;55.476;14.282;2024-01-11T12:40:37;3.90;;;1.10;;
81952;SDS011;71454;55.476;14.282;2024-01-11T12:43:07;5.72;;;1.45;;
81952;SDS011;71454;55.476;14.282;2024-01-11T12:45:33;4.28;;;1.10;;
81952;SDS011;71454;55.476;14.282;2024-01-11T12:47:59;2.92;;;0.93;;
81952;SDS011;71454;55.476;14.282;2024-01-11T12:50:25;3.45;;;0.98;;
81952;SDS011;71454;55.476;14.282;2024-01-11T12:53:06;4.60;;;1.50;;
81952;SDS011;71454;55.476;14.282;2024-01-11T12:55:42;4.60;;;1.25;;
81952;SDS011;71454;55.476;14.282;2024-01-11T12:58:08;5.50;;;1.30;;
81952;SDS011;71454;55.476;14.282;2024-01-11T13:00:35;4.78;;;1.10;;
81952;SDS011;71454;55.476;14.282;2024-01-11T13:03:02;3.83;;;1.20;;
81952;SDS011;71454;55.476;14.282;2024-01-11T13:05:27;5.03;;;1.40;;
81952;SDS011;71454;55.476;14.282;2024-01-11T13:07:53;3.47;;;0.98;;
81952;SDS011;71454;55.476;14.282;2024-01-11T13:10:18;4.32;;;1.40;;
81952;SDS011;71454;55.476;14.282;2024-01-11T13:12:44;5.45;;;1.40;;
81952;SDS011;71454;55.476;14.282;2024-01-11T13:15:10;5.15;;;1.20;;
81952;SDS011;71454;55.476;14.282;2024-01-11T13:17:36;3.72;;;1.13;;
81952;SDS011;71454;55.476;14.282;2024-01-11T13:20:01;3.25;;;1.00;;
81952;SDS011;71454;55.476;14.282;2024-01-11T13:22:27;3.28;;;1.08;;
81952;SDS011;71454;55.476;14.282;2024-01-11T13:24:53;3.80;;;1.10;;
81952;SDS011;71454;55.476;14.282;2024-01-11T13:27:18;4.70;;;1.00;;
81952;SDS011;71454;55.476;14.282;2024-01-11T13:29:44;4.90;;;1.10;;
81952;SDS011;71454;55.476;14.282;2024-01-11T13:32:09;5.15;;;1.17;;
81952;SDS011;71454;55.476;14.282;2024-01-11T13:34:36;4.28;;;1.20;;
81952;SDS011;71454;55.476;14.282;2024-01-11T13:37:02;5.18;;;1.20;;
81952;SDS011;71454;55.476;14.282;2024-01-11T13:39:28;5.22;;;1.35;;
81952;SDS011;71454;55.476;14.282;2024-01-11T13:41:53;3.97;;;1.38;;
81952;SDS011;71454;55.476;14.282;2024-01-11T13:44:19;5.00;;;1.58;;
81952;SDS011;71454;55.476;14.282;2024-01-11T13:46:44;4.95;;;1.38;;
81952;SDS011;71454;55.476;14.282;2024-01-11T13:49:10;5.00;;;1.33;;
81952;SDS011;71454;55.476;14.282;2024-01-11T13:51:36;5.50;;;1.35;;
81952;SDS011;71454;55.476;14.282;2024-01-11T13:54:02;5.07;;;1.20;;
81952;SDS011;71454;55.476;14.282;2024-01-11T13:56:28;4.70;;;1.17;;
81952;SDS011;71454;55.476;14.282;2024-01-11T13:58:53;5.65;;;1.45;;
81952;SDS011;71454;55.476;14.282;2024-01-11T14:01:19;4.32;;;1.00;;
81952;SDS011;71454;55.476;14.282;2024-01-11T14:03:44;4.45;;;1.00;;
81952;SDS011;71454;55.476;14.282;2024-01-11T14:06:10;3.72;;;0.88;;
81952;SDS011;71454;55.476;14.282;2024-01-11T14:08:35;4.30;;;1.30;;
81952;SDS011;71454;55.476;14.282;2024-01-11T14:11:01;3.72;;;0.93;;
81952;SDS011;71454;55.476;14.282;2024-01-11T14:13:27;3.40;;;0.90;;
81952;SDS011;71454;55.476;14.282;2024-01-11T14:15:52;2.88;;;0.70;;
81952;SDS011;71454;55.476;14.282;2024-01-11T14:18:19;2.47;;;0.75;;
81952;SDS011;71454;55.476;14.282;2024-01-11T14:20:46;3.72;;;0.70;;
81952;SDS011;71454;55.476;14.282;2024-01-11T14:23:11;2.70;;;0.82;;
81952;SDS011;71454;55.476;14.282;2024-01-11T14:25:37;3.85;;;0.80;;
81952;SDS011;71454;55.476;14.282;2024-01-11T14:28:02;3.45;;;1.05;;
81952;SDS011;71454;55.476;14.282;2024-01-11T14:30:29;2.95;;;0.82;;